sensor_id;sensor_type;location;lat;lon;timestamp;P1;durP1;ratioP1;P2;durP2;ratioP2
81685;SDS011;71102;50.960;6.888;2024-03-23T00:55:30;15.95;;;7.28;;
81685;SDS011;71102;50.960;6.888;2024-03-23T00:57:55;17.23;;;7.10;;
81685;SDS011;71102;50.960;6.888;2024-03-23T01:00:20;20.40;;;8.00;;
81685;SDS011;71102;50.960;6.888;2024-03-23T01:02:46;20.10;;;7.27;;
81685;SDS011;71102;50.960;6.888;2024-03-23T01:05:11;21.88;;;8.13;;
81685;SDS011;71102;50.960;6.888;2024-03-23T01:07:36;19.92;;;10.30;;
81685;SDS011;71102;50.960;6.888;2024-03-23T01:10:02;18.93;;;7.30;;
81685;SDS011;71102;50.960;6.888;2024-03-23T01:12:27;15.93;;;7.15;;
81685;SDS011;71102;50.960;6.888;2024-03-23T01:14:52;14.18;;;5.78;;
81685;SDS011;71102;50.960;6.888;2024-03-23T01:17:18;10.00;;;4.70;;
81685;SDS011;71102;50.960;6.888;2024-03-23T01:19:43;12.73;;;5.20;;
81685;SDS011;71102;50.960;6.888;2024-03-23T01:22:08;11.03;;;4.90;;
81685;SDS011;71102;50.960;6.888;2024-03-23T01:24:34;13.53;;;4.60;;
81685;SDS011;71102;50.960;6.888;2024-03-23T01:26:59;11.80;;;4.37;;
81685;SDS011;71102;50.960;6.888;2024-03-23T01:29:24;9.77;;;3.80;;
81685;SDS011;71102;50.960;6.888;2024-03-23T01:31:50;9.37;;;3.60;;
81685;SDS011;71102;50.960;6.888;2024-03-23T01:34:15;11.52;;;4.65;;
81685;SDS011;71102;50.960;6.888;2024-03-23T01:36:40;9.73;;;3.73;;
81685;SDS011;71102;50.960;6.888;2024-03-23T01:39:05;12.03;;;4.70;;
81685;SDS011;71102;50.960;6.888;2024-03-23T01:41:31;9.73;;;3.70;;
81685;SDS011;71102;50.960;6.888;2024-03-23T01:43:56;9.23;;;3.42;;
81685;SDS011;71102;50.960;6.888;2024-03-23T01:46:22;9.52;;;3.63;;
81685;SDS011;71102;50.960;6.888;2024-03-23T01:48:47;10.77;;;3.88;;
81685;SDS011;71102;50.960;6.888;2024-03-23T01:51:13;12.18;;;4.45;;
81685;SDS011;71102;50.960;6.888;2024-03-23T01:53:39;11.15;;;3.50;;
81685;SDS011;71102;50.960;6.888;2024-03-23T01:56:04;11.75;;;3.88;;
81685;SDS011;71102;50.960;6.888;2024-03-23T01:58:30;13.30;;;3.95;;
81685;SDS011;71102;50.960;6.888;2024-03-23T02:00:57;10.00;;;3.53;;
81685;SDS011;71102;50.960;6.888;2024-03-23T02:03:26;9.43;;;3.17;;
81685;SDS011;71102;50.960;6.888;2024-03-23T02:05:52;9.68;;;3.05;;
81685;SDS011;71102;50.960;6.888;2024-03-23T02:08:19;12.18;;;4.00;;
81685;SDS011;71102;50.960;6.888;2024-03-23T02:10:45;17.70;;;4.15;;
81685;SDS011;71102;50.960;6.888;2024-03-23T02:13:11;11.85;;;4.60;;
81685;SDS011;71102;50.960;6.888;2024-03-23T02:15:36;13.02;;;5.40;;
81685;SDS011;71102;50.960;6.888;2024-03-23T02:18:03;11.75;;;4.25;;
81685;SDS011;71102;50.960;6.888;2024-03-23T02:20:29;14.10;;;5.40;;
81685;SDS011;71102;50.960;6.888;2024-03-23T02:22:54;14.13;;;4.53;;
81685;SDS011;71102;50.960;6.888;2024-03-23T02:25:20;10.47;;;2.30;;
81685;SDS011;71102;50.960;6.888;2024-03-23T02:27:45;10.53;;;2.63;;
81685;SDS011;71102;50.960;6.888;2024-03-23T02:30:10;6.30;;;1.60;;
81685;SDS011;71102;50.960;6.888;2024-03-23T02:32:36;6.90;;;1.85;;
81685;SDS011;71102;50.960;6.888;2024-03-23T02:35:01;6.13;;;1.50;;
81685;SDS011;71102;50.960;6.888;2024-03-23T02:37:26;7.80;;;1.42;;
81685;SDS011;71102;50.960;6.888;2024-03-23T02:39:52;4.32;;;1.25;;
81685;SDS011;71102;50.960;6.888;2024-03-23T02:42:17;4.18;;;1.42;;
81685;SDS011;71102;50.960;6.888;2024-03-23T02:44:42;8.07;;;1.53;;
81685;SDS011;71102;50.960;6.888;2024-03-23T02:47:08;11.63;;;2.05;;
81685;SDS011;71102;50.960;6.888;2024-03-23T02:49:33;8.73;;;1.80;;
81685;SDS011;71102;50.960;6.888;2024-03-23T02:51:59;8.60;;;1.63;;
81685;SDS011;71102;50.960;6.888;2024-03-23T02:54:24;8.50;;;1.73;;
81685;SDS011;71102;50.960;6.888;2024-03-23T02:56:49;8.35;;;1.83;;
81685;SDS011;71102;50.960;6.888;2024-03-23T02:59:15;6.78;;;1.58;;
81685;SDS011;71102;50.960;6.888;2024-03-23T03:01:40;6.82;;;1.50;;
81685;SDS011;71102;50.960;6.888;2024-03-23T03:04:05;6.43;;;2.10;;
81685;SDS011;71102;50.960;6.888;2024-03-23T03:06:31;9.13;;;2.15;;
81685;SDS011;71102;50.960;6.888;2024-03-23T03:08:56;7.72;;;1.42;;
81685;SDS011;71102;50.960;6.888;2024-03-23T03:11:22;6.13;;;1.65;;
81685;SDS011;71102;50.960;6.888;2024-03-23T03:13:47;7.95;;;1.73;;
81685;SDS011;71102;50.960;6.888;2024-03-23T03:16:12;6.43;;;2.00;;
81685;SDS011;71102;50.960;6.888;2024-03-23T03:18:38;10.32;;;3.25;;
81685;SDS011;71102;50.960;6.888;2024-03-23T03:21:04;10.02;;;1.95;;
81685;SDS011;71102;50.960;6.888;2024-03-23T03:23:29;6.38;;;2.85;;
81685;SDS011;71102;50.960;6.888;2024-03-23T03:25:54;6.13;;;1.30;;
81685;SDS011;71102;50.960;6.888;2024-03-23T03:28:20;9.07;;;1.90;;
81685;SDS011;71102;50.960;6.888;2024-03-23T03:30:45;4.32;;;1.55;;
81685;SDS011;71102;50.960;6.888;2024-03-23T03:33:11;9.97;;;1.83;;
81685;SDS011;71102;50.960;6.888;2024-03-23T03:35:36;8.73;;;1.90;;
81685;SDS011;71102;50.960;6.888;2024-03-23T03:38:01;9.63;;;1.47;;
81685;SDS011;71102;50.960;6.888;2024-03-23T03:40:27;7.40;;;1.27;;
81685;SDS011;71102;50.960;6.888;2024-03-23T03:42:52;7.57;;;1.50;;
81685;SDS011;71102;50.960;6.888;2024-03-23T03:45:17;8.67;;;1.50;;
81685;SDS011;71102;50.960;6.888;2024-03-23T03:47:42;5.40;;;0.93;;
81685;SDS011;71102;50.960;6.888;2024-03-23T03:50:08;10.63;;;1.90;;
81685;SDS011;71102;50.960;6.888;2024-03-23T03:52:33;11.15;;;1.85;;
81685;SDS011;71102;50.960;6.888;2024-03-23T03:55:01;6.63;;;1.58;;
81685;SDS011;71102;50.960;6.888;2024-03-23T03:57:28;10.60;;;1.70;;
81685;SDS011;71102;50.960;6.888;2024-03-23T03:59:53;8.02;;;1.90;;
81685;SDS011;71102;50.960;6.888;2024-03-23T04:02:19;10.30;;;1.40;;
81685;SDS011;71102;50.960;6.888;2024-03-23T04:04:44;7.38;;;1.95;;
81685;SDS011;71102;50.960;6.888;2024-03-23T04:07:09;8.10;;;1.80;;
81685;SDS011;71102;50.960;6.888;2024-03-23T04:09:35;5.97;;;1.27;;
81685;SDS011;71102;50.960;6.888;2024-03-23T04:12:00;11.70;;;2.13;;
81685;SDS011;71102;50.960;6.888;2024-03-23T04:14:25;6.80;;;1.48;;
81685;SDS011;71102;50.960;6.888;2024-03-23T04:16:51;10.67;;;2.13;;
81685;SDS011;71102;50.960;6.888;2024-03-23T04:19:16;8.80;;;2.47;;
81685;SDS011;71102;50.960;6.888;2024-03-23T04:21:41;9.60;;;2.40;;
81685;SDS011;71102;50.960;6.888;2024-03-23T04:24:07;8.70;;;1.93;;
81685;SDS011;71102;50.960;6.888;2024-03-23T04:26:41;6.10;;;1.33;;
81685;SDS011;71102;50.960;6.888;2024-03-23T04:29:07;8.15;;;1.45;;
81685;SDS011;71102;50.960;6.888;2024-03-23T04:31:33;8.90;;;2.50;;
81685;SDS011;71102;50.960;6.888;2024-03-23T04:33:58;6.38;;;2.45;;
81685;SDS011;71102;50.960;6.888;2024-03-23T04:36:23;7.93;;;1.80;;
81685;SDS011;71102;50.960;6.888;2024-03-23T04:38:49;8.07;;;2.20;;
81685;SDS011;71102;50.960;6.888;2024-03-23T04:41:14;6.65;;;1.92;;
81685;SDS011;71102;50.960;6.888;2024-03-23T04:43:39;7.10;;;3.03;;
81685;SDS011;71102;50.960;6.888;2024-03-23T04:46:05;10.18;;;2.65;;
81685;SDS011;71102;50.960;6.888;2024-03-23T04:48:30;8.90;;;2.70;;
81685;SDS011;71102;50.960;6.888;2024-03-23T04:50:55;11.95;;;1.70;;
81685;SDS011;71102;50.960;6.888;2024-03-23T04:53:21;6.20;;;2.43;;
81685;SDS011;71102;50.960;6.888;2024-03-23T04:55:46;8.90;;;1.98;;
81685;SDS011;71102;50.960;6.888;2024-03-23T04:58:11;12.20;;;2.73;;
81685;SDS011;71102;50.960;6.888;2024-03-23T05:00:37;9.20;;;2.45;;
81685;SDS011;71102;50.960;6.888;2024-03-23T05:03:02;9.52;;;2.17;;
81685;SDS011;71102;50.960;6.888;2024-03-23T05:05:27;9.88;;;1.90;;
81685;SDS011;71102;50.960;6.888;2024-03-23T05:07:53;6.83;;;1.53;;
81685;SDS011;71102;50.960;6.888;2024-03-23T05:10:18;9.47;;;1.77;;
81685;SDS011;71102;50.960;6.888;2024-03-23T05:12:43;7.97;;;3.08;;
81685;SDS011;71102;50.960;6.888;2024-03-23T05:15:09;9.30;;;2.17;;
81685;SDS011;71102;50.960;6.888;2024-03-23T05:17:34;11.32;;;2.88;;
81685;SDS011;71102;50.960;6.888;2024-03-23T05:20:00;13.98;;;2.78;;
81685;SDS011;71102;50.960;6.888;2024-03-23T05:22:25;8.40;;;2.20;;
81685;SDS011;71102;50.960;6.888;2024-03-23T05:24:50;9.43;;;2.72;;
81685;SDS011;71102;50.960;6.888;2024-03-23T05:27:16;8.48;;;3.00;;
81685;SDS011;71102;50.960;6.888;2024-03-23T05:29:41;9.83;;;2.50;;
81685;SDS011;71102;50.960;6.888;2024-03-23T05:32:06;10.23;;;2.27;;
81685;SDS011;71102;50.960;6.888;2024-03-23T05:34:32;8.90;;;2.30;;
81685;SDS011;71102;50.960;6.888;2024-03-23T05:36:57;12.48;;;2.55;;
81685;SDS011;71102;50.960;6.888;2024-03-23T05:39:22;12.88;;;2.10;;
81685;SDS011;71102;50.960;6.888;2024-03-23T05:41:48;11.00;;;2.60;;
81685;SDS011;71102;50.960;6.888;2024-03-23T05:44:13;6.55;;;1.88;;
81685;SDS011;71102;50.960;6.888;2024-03-23T05:46:39;13.25;;;3.10;;
81685;SDS011;71102;50.960;6.888;2024-03-23T05:49:04;10.73;;;2.72;;
81685;SDS011;71102;50.960;6.888;2024-03-23T05:51:29;8.17;;;2.00;;
81685;SDS011;71102;50.960;6.888;2024-03-23T05:53:54;11.35;;;2.80;;
81685;SDS011;71102;50.960;6.888;2024-03-23T05:56:20;13.67;;;2.70;;
81685;SDS011;71102;50.960;6.888;2024-03-23T05:58:45;11.02;;;2.40;;
81685;SDS011;71102;50.960;6.888;2024-03-23T06:01:10;7.47;;;1.88;;
81685;SDS011;71102;50.960;6.888;2024-03-23T06:03:36;8.73;;;1.57;;
81685;SDS011;71102;50.960;6.888;2024-03-23T06:06:01;11.67;;;2.27;;
81685;SDS011;71102;50.960;6.888;2024-03-23T06:08:27;9.43;;;3.22;;
81685;SDS011;71102;50.960;6.888;2024-03-23T06:10:52;7.70;;;2.63;;
81685;SDS011;71102;50.960;6.888;2024-03-23T06:13:17;10.88;;;1.92;;
81685;SDS011;71102;50.960;6.888;2024-03-23T06:15:43;8.85;;;3.63;;
81685;SDS011;71102;50.960;6.888;2024-03-23T06:18:08;10.38;;;3.08;;
81685;SDS011;71102;50.960;6.888;2024-03-23T06:20:34;9.63;;;3.13;;
81685;SDS011;71102;50.960;6.888;2024-03-23T06:23:00;14.20;;;2.13;;
81685;SDS011;71102;50.960;6.888;2024-03-23T06:25:26;12.85;;;2.67;;
81685;SDS011;71102;50.960;6.888;2024-03-23T06:27:51;9.48;;;1.88;;
81685;SDS011;71102;50.960;6.888;2024-03-23T06:30:16;10.57;;;3.08;;
81685;SDS011;71102;50.960;6.888;2024-03-23T06:32:42;10.70;;;3.15;;
81685;SDS011;71102;50.960;6.888;2024-03-23T06:35:07;6.85;;;2.47;;
81685;SDS011;71102;50.960;6.888;2024-03-23T06:37:32;8.02;;;2.15;;
81685;SDS011;71102;50.960;6.888;2024-03-23T06:39:58;12.13;;;2.63;;
81685;SDS011;71102;50.960;6.888;2024-03-23T06:42:23;11.30;;;2.40;;
81685;SDS011;71102;50.960;6.888;2024-03-23T06:44:48;8.48;;;2.20;;
81685;SDS011;71102;50.960;6.888;2024-03-23T06:47:14;12.57;;;2.40;;
81685;SDS011;71102;50.960;6.888;2024-03-23T06:49:39;8.93;;;2.27;;
81685;SDS011;71102;50.960;6.888;2024-03-23T06:52:04;12.85;;;2.53;;
81685;SDS011;71102;50.960;6.888;2024-03-23T06:54:30;12.63;;;2.90;;
81685;SDS011;71102;50.960;6.888;2024-03-23T06:56:55;11.43;;;2.78;;
81685;SDS011;71102;50.960;6.888;2024-03-23T06:59:20;13.80;;;2.72;;
81685;SDS011;71102;50.960;6.888;2024-03-23T07:01:46;11.52;;;3.05;;
81685;SDS011;71102;50.960;6.888;2024-03-23T07:04:11;12.60;;;4.00;;
81685;SDS011;71102;50.960;6.888;2024-03-23T07:06:46;8.30;;;3.23;;
81685;SDS011;71102;50.960;6.888;2024-03-23T07:09:11;10.95;;;3.38;;
81685;SDS011;71102;50.960;6.888;2024-03-23T07:11:37;9.63;;;2.63;;
81685;SDS011;71102;50.960;6.888;2024-03-23T07:14:03;11.43;;;3.05;;
81685;SDS011;71102;50.960;6.888;2024-03-23T07:16:28;12.48;;;3.53;;
81685;SDS011;71102;50.960;6.888;2024-03-23T07:18:54;10.30;;;2.38;;
81685;SDS011;71102;50.960;6.888;2024-03-23T07:21:19;16.33;;;3.83;;
81685;SDS011;71102;50.960;6.888;2024-03-23T07:23:45;15.63;;;4.80;;
81685;SDS011;71102;50.960;6.888;2024-03-23T07:26:10;12.98;;;3.58;;
81685;SDS011;71102;50.960;6.888;2024-03-23T07:28:36;12.07;;;4.05;;
81685;SDS011;71102;50.960;6.888;2024-03-23T07:31:06;13.75;;;3.90;;
81685;SDS011;71102;50.960;6.888;2024-03-23T07:33:32;19.70;;;5.05;;
81685;SDS011;71102;50.960;6.888;2024-03-23T07:35:58;10.68;;;3.95;;
81685;SDS011;71102;50.960;6.888;2024-03-23T07:38:23;15.88;;;3.47;;
81685;SDS011;71102;50.960;6.888;2024-03-23T07:40:49;16.10;;;4.20;;
81685;SDS011;71102;50.960;6.888;2024-03-23T07:43:14;16.25;;;4.95;;
81685;SDS011;71102;50.960;6.888;2024-03-23T07:45:39;17.00;;;4.80;;
81685;SDS011;71102;50.960;6.888;2024-03-23T07:48:05;11.60;;;4.50;;
81685;SDS011;71102;50.960;6.888;2024-03-23T07:50:30;13.93;;;4.90;;
81685;SDS011;71102;50.960;6.888;2024-03-23T07:52:55;12.13;;;4.68;;
81685;SDS011;71102;50.960;6.888;2024-03-23T07:55:21;16.37;;;5.67;;
81685;SDS011;71102;50.960;6.888;2024-03-23T07:57:46;10.52;;;4.53;;
81685;SDS011;71102;50.960;6.888;2024-03-23T08:00:12;14.25;;;4.45;;
81685;SDS011;71102;50.960;6.888;2024-03-23T08:02:38;13.25;;;4.85;;
81685;SDS011;71102;50.960;6.888;2024-03-23T08:05:03;12.60;;;5.10;;
81685;SDS011;71102;50.960;6.888;2024-03-23T08:07:28;10.68;;;5.13;;
81685;SDS011;71102;50.960;6.888;2024-03-23T08:09:54;10.80;;;4.65;;
81685;SDS011;71102;50.960;6.888;2024-03-23T08:12:19;9.90;;;3.73;;
81685;SDS011;71102;50.960;6.888;2024-03-23T08:14:44;13.75;;;4.93;;
81685;SDS011;71102;50.960;6.888;2024-03-23T08:17:10;10.48;;;4.13;;
81685;SDS011;71102;50.960;6.888;2024-03-23T08:19:35;10.97;;;3.00;;
81685;SDS011;71102;50.960;6.888;2024-03-23T08:22:00;9.03;;;3.23;;
81685;SDS011;71102;50.960;6.888;2024-03-23T08:24:26;9.37;;;3.43;;
81685;SDS011;71102;50.960;6.888;2024-03-23T08:26:51;10.35;;;3.38;;
81685;SDS011;71102;50.960;6.888;2024-03-23T08:29:19;5.97;;;1.95;;
81685;SDS011;71102;50.960;6.888;2024-03-23T08:31:44;11.73;;;2.47;;
81685;SDS011;71102;50.960;6.888;2024-03-23T08:34:09;11.47;;;3.00;;
81685;SDS011;71102;50.960;6.888;2024-03-23T08:36:35;7.77;;;2.70;;
81685;SDS011;71102;50.960;6.888;2024-03-23T08:39:00;7.17;;;3.00;;
81685;SDS011;71102;50.960;6.888;2024-03-23T08:41:25;9.27;;;4.27;;
81685;SDS011;71102;50.960;6.888;2024-03-23T08:43:51;7.33;;;3.87;;
81685;SDS011;71102;50.960;6.888;2024-03-23T08:46:16;10.48;;;4.45;;
81685;SDS011;71102;50.960;6.888;2024-03-23T08:48:46;11.50;;;4.00;;
81685;SDS011;71102;50.960;6.888;2024-03-23T08:51:13;15.20;;;4.43;;
81685;SDS011;71102;50.960;6.888;2024-03-23T08:53:39;17.63;;;4.30;;
81685;SDS011;71102;50.960;6.888;2024-03-23T08:56:05;11.05;;;3.67;;
81685;SDS011;71102;50.960;6.888;2024-03-23T08:58:31;13.98;;;4.68;;
81685;SDS011;71102;50.960;6.888;2024-03-23T09:01:04;10.20;;;4.38;;
81685;SDS011;71102;50.960;6.888;2024-03-23T09:03:30;12.38;;;4.70;;
81685;SDS011;71102;50.960;6.888;2024-03-23T09:05:56;12.30;;;4.88;;
81685;SDS011;71102;50.960;6.888;2024-03-23T09:08:21;12.75;;;4.05;;
81685;SDS011;71102;50.960;6.888;2024-03-23T09:10:47;11.40;;;3.93;;
81685;SDS011;71102;50.960;6.888;2024-03-23T09:13:13;12.18;;;3.85;;
81685;SDS011;71102;50.960;6.888;2024-03-23T09:15:45;12.93;;;4.65;;
81685;SDS011;71102;50.960;6.888;2024-03-23T09:18:12;11.05;;;3.22;;
81685;SDS011;71102;50.960;6.888;2024-03-23T09:20:37;9.80;;;4.13;;
81685;SDS011;71102;50.960;6.888;2024-03-23T09:23:02;12.68;;;2.85;;
81685;SDS011;71102;50.960;6.888;2024-03-23T09:25:28;11.20;;;3.40;;
81685;SDS011;71102;50.960;6.888;2024-03-23T09:27:53;10.95;;;3.97;;
81685;SDS011;71102;50.960;6.888;2024-03-23T09:30:19;11.15;;;3.88;;
81685;SDS011;71102;50.960;6.888;2024-03-23T09:32:44;8.77;;;3.40;;
81685;SDS011;71102;50.960;6.888;2024-03-23T09:35:10;8.93;;;2.05;;
81685;SDS011;71102;50.960;6.888;2024-03-23T09:37:36;9.63;;;3.15;;
81685;SDS011;71102;50.960;6.888;2024-03-23T09:40:02;9.18;;;3.20;;
81685;SDS011;71102;50.960;6.888;2024-03-23T09:42:27;10.73;;;2.45;;
81685;SDS011;71102;50.960;6.888;2024-03-23T09:44:52;10.90;;;2.67;;
81685;SDS011;71102;50.960;6.888;2024-03-23T09:47:19;7.78;;;2.78;;
81685;SDS011;71102;50.960;6.888;2024-03-23T09:49:44;7.80;;;3.55;;
81685;SDS011;71102;50.960;6.888;2024-03-23T09:52:10;9.35;;;2.75;;
81685;SDS011;71102;50.960;6.888;2024-03-23T09:54:35;9.20;;;2.10;;
81685;SDS011;71102;50.960;6.888;2024-03-23T09:57:01;8.23;;;2.15;;
81685;SDS011;71102;50.960;6.888;2024-03-23T09:59:26;8.60;;;2.80;;
81685;SDS011;71102;50.960;6.888;2024-03-23T10:01:52;9.18;;;2.45;;
81685;SDS011;71102;50.960;6.888;2024-03-23T10:07:15;8.93;;;1.85;;
81685;SDS011;71102;50.960;6.888;2024-03-23T10:09:43;12.18;;;2.13;;
81685;SDS011;71102;50.960;6.888;2024-03-23T10:12:12;8.30;;;2.47;;
81685;SDS011;71102;50.960;6.888;2024-03-23T10:14:38;6.40;;;2.38;;
81685;SDS011;71102;50.960;6.888;2024-03-23T10:17:14;11.15;;;3.03;;
81685;SDS011;71102;50.960;6.888;2024-03-23T10:19:40;7.65;;;1.92;;
81685;SDS011;71102;50.960;6.888;2024-03-23T10:22:06;9.73;;;2.47;;
81685;SDS011;71102;50.960;6.888;2024-03-23T10:24:31;8.05;;;1.60;;
81685;SDS011;71102;50.960;6.888;2024-03-23T10:26:57;9.05;;;2.30;;
81685;SDS011;71102;50.960;6.888;2024-03-23T10:29:22;9.27;;;2.47;;
81685;SDS011;71102;50.960;6.888;2024-03-23T10:31:47;8.07;;;2.13;;
81685;SDS011;71102;50.960;6.888;2024-03-23T10:34:13;6.33;;;1.27;;
81685;SDS011;71102;50.960;6.888;2024-03-23T10:36:38;8.13;;;1.55;;
81685;SDS011;71102;50.960;6.888;2024-03-23T10:39:05;8.73;;;2.30;;
81685;SDS011;71102;50.960;6.888;2024-03-23T10:41:32;6.30;;;1.23;;
81685;SDS011;71102;50.960;6.888;2024-03-23T10:43:58;5.63;;;2.10;;
81685;SDS011;71102;50.960;6.888;2024-03-23T10:46:24;9.65;;;1.45;;
81685;SDS011;71102;50.960;6.888;2024-03-23T10:48:49;3.92;;;1.30;;
81685;SDS011;71102;50.960;6.888;2024-03-23T10:51:15;5.85;;;1.67;;
81685;SDS011;71102;50.960;6.888;2024-03-23T10:53:40;5.22;;;1.58;;
81685;SDS011;71102;50.960;6.888;2024-03-23T10:56:06;5.40;;;1.50;;
81685;SDS011;71102;50.960;6.888;2024-03-23T10:58:34;3.50;;;0.95;;
81685;SDS011;71102;50.960;6.888;2024-03-23T11:01:03;6.00;;;2.00;;
81685;SDS011;71102;50.960;6.888;2024-03-23T11:03:35;5.30;;;1.73;;
81685;SDS011;71102;50.960;6.888;2024-03-23T11:06:02;5.68;;;1.40;;
81685;SDS011;71102;50.960;6.888;2024-03-23T11:16:23;11.00;;;2.13;;
81685;SDS011;71102;50.960;6.888;2024-03-23T11:18:49;8.13;;;1.92;;
81685;SDS011;71102;50.960;6.888;2024-03-23T11:24:19;4.25;;;1.20;;
81685;SDS011;71102;50.960;6.888;2024-03-23T11:26:45;5.35;;;0.98;;
81685;SDS011;71102;50.960;6.888;2024-03-23T11:29:10;6.65;;;1.30;;
81685;SDS011;71102;50.960;6.888;2024-03-23T11:31:37;3.78;;;1.45;;
81685;SDS011;71102;50.960;6.888;2024-03-23T11:34:06;2.95;;;0.90;;
81685;SDS011;71102;50.960;6.888;2024-03-23T11:36:32;6.20;;;1.90;;
81685;SDS011;71102;50.960;6.888;2024-03-23T11:38:57;4.15;;;0.85;;
81685;SDS011;71102;50.960;6.888;2024-03-23T11:41:23;5.00;;;1.33;;
81685;SDS011;71102;50.960;6.888;2024-03-23T11:43:48;5.03;;;1.00;;
81685;SDS011;71102;50.960;6.888;2024-03-23T11:46:21;4.03;;;1.43;;
81685;SDS011;71102;50.960;6.888;2024-03-23T11:48:50;4.82;;;0.75;;
81685;SDS011;71102;50.960;6.888;2024-03-23T11:51:16;4.10;;;0.98;;
81685;SDS011;71102;50.960;6.888;2024-03-23T11:53:42;5.82;;;1.33;;
81685;SDS011;71102;50.960;6.888;2024-03-23T11:56:07;5.43;;;1.15;;
81685;SDS011;71102;50.960;6.888;2024-03-23T11:58:34;4.03;;;1.95;;
81685;SDS011;71102;50.960;6.888;2024-03-23T12:01:00;4.45;;;1.90;;
81685;SDS011;71102;50.960;6.888;2024-03-23T12:03:27;4.75;;;1.20;;
81685;SDS011;71102;50.960;6.888;2024-03-23T12:05:54;5.38;;;0.90;;
81685;SDS011;71102;50.960;6.888;2024-03-23T12:08:21;6.70;;;1.70;;
81685;SDS011;71102;50.960;6.888;2024-03-23T12:11:04;7.40;;;2.95;;
81685;SDS011;71102;50.960;6.888;2024-03-23T12:13:29;5.15;;;2.40;;
81685;SDS011;71102;50.960;6.888;2024-03-23T12:15:55;4.32;;;1.38;;
81685;SDS011;71102;50.960;6.888;2024-03-23T12:18:34;7.10;;;1.50;;
81685;SDS011;71102;50.960;6.888;2024-03-23T12:20:59;5.10;;;1.43;;
81685;SDS011;71102;50.960;6.888;2024-03-23T12:23:25;3.90;;;1.52;;
81685;SDS011;71102;50.960;6.888;2024-03-23T12:25:50;5.27;;;1.47;;
81685;SDS011;71102;50.960;6.888;2024-03-23T12:28:15;4.55;;;2.35;;
81685;SDS011;71102;50.960;6.888;2024-03-23T12:30:40;3.50;;;1.67;;
81685;SDS011;71102;50.960;6.888;2024-03-23T12:33:06;2.35;;;0.95;;
81685;SDS011;71102;50.960;6.888;2024-03-23T12:35:32;4.70;;;1.33;;
81685;SDS011;71102;50.960;6.888;2024-03-23T12:37:57;3.35;;;1.50;;
81685;SDS011;71102;50.960;6.888;2024-03-23T12:40:23;1.95;;;0.70;;
81685;SDS011;71102;50.960;6.888;2024-03-23T12:42:48;3.35;;;1.17;;
81685;SDS011;71102;50.960;6.888;2024-03-23T12:45:14;2.63;;;1.20;;
81685;SDS011;71102;50.960;6.888;2024-03-23T12:47:39;2.95;;;0.68;;
81685;SDS011;71102;50.960;6.888;2024-03-23T12:50:05;2.70;;;1.42;;
81685;SDS011;71102;50.960;6.888;2024-03-23T12:52:30;2.00;;;0.60;;
81685;SDS011;71102;50.960;6.888;2024-03-23T12:54:56;4.65;;;1.85;;
81685;SDS011;71102;50.960;6.888;2024-03-23T12:57:22;2.28;;;1.33;;
81685;SDS011;71102;50.960;6.888;2024-03-23T12:59:48;3.38;;;1.45;;
81685;SDS011;71102;50.960;6.888;2024-03-23T13:02:13;3.13;;;1.65;;
81685;SDS011;71102;50.960;6.888;2024-03-23T13:04:39;4.10;;;1.50;;
81685;SDS011;71102;50.960;6.888;2024-03-23T13:07:04;3.40;;;0.85;;
81685;SDS011;71102;50.960;6.888;2024-03-23T13:09:29;4.10;;;1.13;;
81685;SDS011;71102;50.960;6.888;2024-03-23T13:11:55;2.88;;;1.02;;
81685;SDS011;71102;50.960;6.888;2024-03-23T13:14:20;4.93;;;0.90;;
81685;SDS011;71102;50.960;6.888;2024-03-23T13:16:45;4.33;;;1.53;;
81685;SDS011;71102;50.960;6.888;2024-03-23T13:19:10;2.70;;;0.75;;
81685;SDS011;71102;50.960;6.888;2024-03-23T13:21:36;6.53;;;1.77;;
81685;SDS011;71102;50.960;6.888;2024-03-23T13:24:01;5.97;;;1.50;;
81685;SDS011;71102;50.960;6.888;2024-03-23T13:26:27;5.50;;;2.42;;
81685;SDS011;71102;50.960;6.888;2024-03-23T13:28:52;4.70;;;1.55;;
81685;SDS011;71102;50.960;6.888;2024-03-23T13:31:17;6.67;;;1.60;;
81685;SDS011;71102;50.960;6.888;2024-03-23T13:33:43;7.15;;;2.38;;
81685;SDS011;71102;50.960;6.888;2024-03-23T13:36:08;5.73;;;1.80;;
81685;SDS011;71102;50.960;6.888;2024-03-23T13:38:33;5.97;;;1.70;;
81685;SDS011;71102;50.960;6.888;2024-03-23T13:40:59;5.55;;;1.45;;
81685;SDS011;71102;50.960;6.888;2024-03-23T13:43:26;5.60;;;1.55;;
81685;SDS011;71102;50.960;6.888;2024-03-23T13:46:01;6.43;;;1.75;;
81685;SDS011;71102;50.960;6.888;2024-03-23T13:48:27;6.70;;;1.60;;
81685;SDS011;71102;50.960;6.888;2024-03-23T13:51:04;4.65;;;1.50;;
81685;SDS011;71102;50.960;6.888;2024-03-23T13:53:30;4.20;;;1.05;;
81685;SDS011;71102;50.960;6.888;2024-03-23T13:55:56;4.18;;;0.80;;
81685;SDS011;71102;50.960;6.888;2024-03-23T13:58:21;4.60;;;1.15;;
81685;SDS011;71102;50.960;6.888;2024-03-23T14:00:47;1.80;;;1.27;;
81685;SDS011;71102;50.960;6.888;2024-03-23T14:03:13;4.90;;;1.25;;
81685;SDS011;71102;50.960;6.888;2024-03-23T14:05:39;5.25;;;1.38;;
81685;SDS011;71102;50.960;6.888;2024-03-23T14:08:08;5.45;;;1.50;;
81685;SDS011;71102;50.960;6.888;2024-03-23T14:10:34;4.05;;;1.67;;
81685;SDS011;71102;50.960;6.888;2024-03-23T14:13:00;5.13;;;1.67;;
81685;SDS011;71102;50.960;6.888;2024-03-23T14:15:26;4.07;;;0.85;;
81685;SDS011;71102;50.960;6.888;2024-03-23T14:17:52;3.92;;;0.98;;
81685;SDS011;71102;50.960;6.888;2024-03-23T14:20:17;2.95;;;1.35;;
81685;SDS011;71102;50.960;6.888;2024-03-23T14:22:43;8.25;;;1.58;;
81685;SDS011;71102;50.960;6.888;2024-03-23T14:25:08;4.05;;;1.83;;
81685;SDS011;71102;50.960;6.888;2024-03-23T14:27:33;3.30;;;0.88;;
81685;SDS011;71102;50.960;6.888;2024-03-23T14:29:58;2.47;;;0.83;;
81685;SDS011;71102;50.960;6.888;2024-03-23T14:32:24;4.33;;;1.43;;
81685;SDS011;71102;50.960;6.888;2024-03-23T14:34:49;3.25;;;1.00;;
81685;SDS011;71102;50.960;6.888;2024-03-23T14:37:14;5.63;;;1.80;;
81685;SDS011;71102;50.960;6.888;2024-03-23T14:39:40;5.38;;;2.55;;
81685;SDS011;71102;50.960;6.888;2024-03-23T14:42:05;4.73;;;1.50;;
81685;SDS011;71102;50.960;6.888;2024-03-23T14:44:30;4.03;;;1.08;;
81685;SDS011;71102;50.960;6.888;2024-03-23T14:46:56;2.93;;;0.83;;
81685;SDS011;71102;50.960;6.888;2024-03-23T14:49:21;7.57;;;2.83;;
81685;SDS011;71102;50.960;6.888;2024-03-23T14:51:46;6.05;;;1.17;;
81685;SDS011;71102;50.960;6.888;2024-03-23T14:54:12;3.30;;;1.73;;
81685;SDS011;71102;50.960;6.888;2024-03-23T14:56:37;5.35;;;1.13;;
81685;SDS011;71102;50.960;6.888;2024-03-23T14:59:02;5.90;;;1.40;;
81685;SDS011;71102;50.960;6.888;2024-03-23T15:01:28;5.30;;;1.30;;
81685;SDS011;71102;50.960;6.888;2024-03-23T15:03:53;4.22;;;2.08;;
81685;SDS011;71102;50.960;6.888;2024-03-23T15:06:18;4.63;;;1.57;;
81685;SDS011;71102;50.960;6.888;2024-03-23T15:08:44;4.20;;;2.53;;
81685;SDS011;71102;50.960;6.888;2024-03-23T15:11:10;3.55;;;2.22;;
81685;SDS011;71102;50.960;6.888;2024-03-23T15:13:36;3.53;;;1.23;;
81685;SDS011;71102;50.960;6.888;2024-03-23T15:16:02;6.13;;;2.75;;
81685;SDS011;71102;50.960;6.888;2024-03-23T15:18:28;3.92;;;1.75;;
81685;SDS011;71102;50.960;6.888;2024-03-23T15:20:54;3.08;;;0.80;;
81685;SDS011;71102;50.960;6.888;2024-03-23T15:23:21;3.90;;;1.17;;
81685;SDS011;71102;50.960;6.888;2024-03-23T15:25:56;3.50;;;1.40;;
81685;SDS011;71102;50.960;6.888;2024-03-23T15:28:23;3.60;;;1.63;;
81685;SDS011;71102;50.960;6.888;2024-03-23T15:30:48;4.25;;;2.38;;
81685;SDS011;71102;50.960;6.888;2024-03-23T15:33:14;5.50;;;1.88;;
81685;SDS011;71102;50.960;6.888;2024-03-23T15:35:39;4.45;;;1.55;;
81685;SDS011;71102;50.960;6.888;2024-03-23T15:38:04;3.60;;;1.08;;
81685;SDS011;71102;50.960;6.888;2024-03-23T15:40:30;4.53;;;1.23;;
81685;SDS011;71102;50.960;6.888;2024-03-23T15:42:55;4.10;;;1.90;;